createdAt,value
2018-11-21T00:00:05.189Z,17.96
2018-11-21T00:01:04.967Z,17.95
2018-11-21T00:02:05.027Z,17.95
2018-11-21T00:03:04.864Z,17.96
2018-11-21T00:04:05.107Z,17.95
2018-11-21T00:05:04.877Z,17.95
2018-11-21T00:06:04.871Z,17.92
2018-11-21T00:07:05.113Z,17.93
2018-11-21T00:08:05.019Z,17.91
2018-11-21T00:09:05.308Z,17.92
2018-11-21T00:10:05.110Z,17.93
2018-11-21T00:11:05.100Z,17.9
2018-11-21T00:12:05.307Z,17.91
2018-11-21T00:13:05.417Z,17.91
2018-11-21T00:14:04.798Z,17.91
2018-11-21T00:15:04.902Z,17.94
2018-11-21T00:16:05.277Z,17.91
2018-11-21T00:17:04.999Z,17.88
2018-11-21T00:18:05.130Z,17.9
2018-11-21T00:19:04.972Z,17.9
2018-11-21T00:20:05.159Z,17.91
2018-11-21T00:21:04.883Z,17.9
2018-11-21T00:22:05.121Z,17.91
2018-11-21T00:23:05.076Z,17.91
2018-11-21T00:24:05.440Z,17.89
2018-11-21T00:25:05.222Z,17.89
2018-11-21T00:26:05.430Z,17.88
2018-11-21T00:27:05.028Z,17.88
2018-11-21T00:28:05.079Z,17.88
2018-11-21T00:29:05.020Z,17.89
2018-11-21T00:30:05.125Z,17.92
2018-11-21T00:31:05.258Z,17.88
2018-11-21T00:32:05.139Z,17.89
2018-11-21T00:33:05.033Z,17.87
2018-11-21T00:34:05.477Z,17.87
2018-11-21T00:35:04.897Z,17.88
2018-11-21T00:36:05.096Z,17.87
2018-11-21T00:37:05.385Z,17.89
2018-11-21T00:38:05.601Z,17.85
2018-11-21T00:39:04.882Z,17.88
2018-11-21T00:40:05.023Z,17.88
2018-11-21T00:41:05.073Z,17.87
2018-11-21T00:42:04.842Z,17.83
2018-11-21T00:43:05.447Z,17.85
2018-11-21T00:44:05.105Z,17.88
2018-11-21T00:45:05.609Z,17.87
2018-11-21T00:46:05.145Z,17.88
2018-11-21T00:47:05.346Z,17.88
2018-11-21T00:48:04.951Z,17.83
2018-11-21T00:49:05.124Z,17.81
2018-11-21T00:50:05.052Z,17.85
2018-11-21T00:51:05.299Z,17.88
2018-11-21T00:52:05.057Z,17.83
2018-11-21T00:53:05.014Z,17.82
2018-11-21T00:54:05.062Z,17.85
2018-11-21T00:55:04.929Z,17.83
2018-11-21T00:56:04.996Z,17.84
2018-11-21T00:57:04.815Z,17.81
2018-11-21T00:58:05.022Z,17.82
2018-11-21T00:59:05.090Z,17.8
2018-11-21T01:00:04.878Z,17.83
2018-11-21T01:01:05.170Z,17.83
2018-11-21T01:02:05.215Z,17.83
2018-11-21T01:03:05.259Z,17.78
2018-11-21T01:04:04.884Z,17.82
2018-11-21T01:05:05.111Z,17.82
2018-11-21T01:06:05.228Z,17.8
2018-11-21T01:07:04.994Z,17.81
2018-11-21T01:08:05.299Z,17.8
2018-11-21T01:09:04.924Z,17.8
2018-11-21T01:10:05.026Z,17.8
2018-11-21T01:11:05.116Z,17.8
2018-11-21T01:12:05.123Z,17.8
2018-11-21T01:13:04.973Z,17.78
2018-11-21T01:14:04.952Z,17.79
2018-11-21T01:15:04.883Z,17.81
2018-11-21T01:16:05.066Z,17.8
2018-11-21T01:17:04.850Z,17.79
2018-11-21T01:18:04.984Z,17.79
2018-11-21T01:19:05.276Z,17.77
2018-11-21T01:20:05.355Z,17.8
2018-11-21T01:21:05.110Z,17.8
2018-11-21T01:22:05.014Z,17.8
2018-11-21T01:23:05.326Z,17.79
2018-11-21T01:24:04.895Z,17.8
2018-11-21T01:25:04.860Z,17.78
2018-11-21T01:26:05.372Z,17.8
2018-11-21T01:27:05.116Z,17.79
2018-11-21T01:28:05.089Z,17.8
2018-11-21T01:29:05.058Z,17.79
2018-11-21T01:30:05.035Z,17.78
2018-11-21T01:31:04.857Z,17.78
2018-11-21T01:32:05.059Z,17.79
2018-11-21T01:33:10.108Z,17.79
2018-11-21T01:34:04.934Z,17.78
2018-11-21T01:35:05.026Z,17.78
2018-11-21T01:36:05.090Z,17.77
2018-11-21T01:37:05.040Z,17.76
2018-11-21T01:38:05.002Z,17.77
2018-11-21T01:39:05.079Z,17.76
2018-11-21T01:40:05.323Z,17.75
2018-11-21T01:41:04.979Z,17.75
2018-11-21T01:42:05.033Z,17.77
2018-11-21T01:43:04.894Z,17.75
2018-11-21T01:44:05.065Z,17.76
2018-11-21T01:45:05.184Z,17.76
2018-11-21T01:46:05.019Z,17.76
2018-11-21T01:47:04.882Z,17.75
2018-11-21T01:48:04.957Z,17.75
2018-11-21T01:49:05.136Z,17.76
2018-11-21T01:50:04.951Z,17.76
2018-11-21T01:51:05.052Z,17.76
2018-11-21T01:52:05.349Z,17.74
2018-11-21T01:53:05.114Z,17.74
2018-11-21T01:54:05.115Z,17.73
2018-11-21T01:55:05.308Z,17.74
2018-11-21T01:56:05.049Z,17.75
2018-11-21T01:57:05.011Z,17.75
2018-11-21T01:58:05.085Z,17.74
2018-11-21T01:59:05.256Z,17.73
2018-11-21T02:00:05.350Z,17.72
2018-11-21T02:01:05.381Z,17.73
2018-11-21T02:02:05.099Z,17.7
2018-11-21T02:03:05.385Z,17.73
2018-11-21T02:04:05.234Z,17.74
2018-11-21T02:05:05.769Z,17.73
2018-11-21T02:06:05.079Z,17.74
2018-11-21T02:07:05.225Z,17.7
2018-11-21T02:08:05.088Z,17.73
2018-11-21T02:09:04.984Z,17.73
2018-11-21T02:10:04.907Z,17.72
2018-11-21T02:11:05.518Z,17.72
2018-11-21T02:12:05.756Z,17.74
2018-11-21T02:13:04.984Z,17.73
2018-11-21T02:14:05.063Z,17.69
2018-11-21T02:15:04.898Z,17.72
2018-11-21T02:16:04.991Z,17.68
2018-11-21T02:17:05.158Z,17.69
2018-11-21T02:18:04.985Z,17.67
2018-11-21T02:19:04.963Z,17.68
2018-11-21T02:20:05.081Z,17.67
2018-11-21T02:21:04.917Z,17.68
2018-11-21T02:22:05.228Z,17.69
2018-11-21T02:23:05.022Z,17.66
2018-11-21T02:24:05.120Z,17.7
2018-11-21T02:25:05.175Z,17.68
2018-11-21T02:26:04.884Z,17.68
2018-11-21T02:27:04.890Z,17.69
2018-11-21T02:28:05.157Z,17.69
2018-11-21T02:29:04.978Z,17.67
2018-11-21T02:30:04.927Z,17.67
2018-11-21T02:31:05.018Z,17.67
2018-11-21T02:32:05.123Z,17.68
2018-11-21T02:33:05.199Z,17.72
2018-11-21T02:34:05.399Z,17.68
2018-11-21T02:35:05.353Z,17.68
2018-11-21T02:36:04.981Z,17.67
2018-11-21T02:37:04.881Z,17.68
2018-11-21T02:38:04.988Z,17.69
2018-11-21T02:39:05.060Z,17.68
2018-11-21T02:40:05.263Z,17.68
2018-11-21T02:41:05.165Z,17.67
2018-11-21T02:42:04.954Z,17.67
2018-11-21T02:43:05.080Z,17.67
2018-11-21T02:44:05.039Z,17.67
2018-11-21T02:45:05.263Z,17.66
2018-11-21T02:46:04.896Z,17.66
2018-11-21T02:47:05.081Z,17.67
2018-11-21T02:48:05.103Z,17.64
2018-11-21T02:49:05.434Z,17.63
2018-11-21T02:50:04.856Z,17.64
2018-11-21T02:51:04.979Z,17.65
2018-11-21T02:52:05.470Z,17.65
2018-11-21T02:53:04.901Z,17.65
2018-11-21T02:54:05.047Z,17.66
2018-11-21T02:55:05.011Z,17.65
2018-11-21T02:56:04.944Z,17.63
2018-11-21T02:57:04.842Z,17.63
2018-11-21T02:58:05.203Z,17.67
2018-11-21T02:59:04.785Z,17.65
2018-11-21T03:00:05.182Z,17.63
2018-11-21T03:01:05.064Z,17.64
2018-11-21T03:02:04.841Z,17.63
2018-11-21T03:03:05.404Z,17.62
2018-11-21T03:04:04.922Z,17.64
2018-11-21T03:05:04.910Z,17.63
2018-11-21T03:06:04.858Z,17.66
2018-11-21T03:07:05.212Z,17.65
2018-11-21T03:08:04.932Z,17.64
2018-11-21T03:09:04.843Z,17.66
2018-11-21T03:10:05.165Z,17.64
2018-11-21T03:11:05.013Z,17.63
2018-11-21T03:12:05.051Z,17.64
2018-11-21T03:13:04.860Z,17.64
2018-11-21T03:14:04.865Z,17.62
2018-11-21T03:15:04.874Z,17.61
2018-11-21T03:16:05.716Z,17.62
2018-11-21T03:17:04.973Z,17.63
2018-11-21T03:18:05.100Z,17.63
2018-11-21T03:19:04.882Z,17.64
2018-11-21T03:20:04.915Z,17.64
2018-11-21T03:21:05.070Z,17.61
2018-11-21T03:22:04.933Z,17.61
2018-11-21T03:23:04.972Z,17.59
2018-11-21T03:24:04.794Z,17.61
2018-11-21T03:25:04.857Z,17.6
2018-11-21T03:26:04.844Z,17.61
2018-11-21T03:27:04.950Z,17.62
2018-11-21T03:28:04.825Z,17.59
2018-11-21T03:29:04.954Z,17.62
2018-11-21T03:30:04.995Z,17.6
2018-11-21T03:31:04.961Z,17.62
2018-11-21T03:32:05.055Z,17.6
2018-11-21T03:33:04.803Z,17.61
2018-11-21T03:34:04.940Z,17.59
2018-11-21T03:35:05.244Z,17.6
2018-11-21T03:36:05.248Z,17.62
2018-11-21T03:37:05.458Z,17.58
2018-11-21T03:38:05.340Z,17.55
2018-11-21T03:39:05.270Z,17.59
2018-11-21T03:40:04.896Z,17.59
2018-11-21T03:41:05.268Z,17.6
2018-11-21T03:42:04.878Z,17.58
2018-11-21T03:43:05.308Z,17.56
2018-11-21T03:44:04.875Z,17.58
2018-11-21T03:45:05.314Z,17.59
2018-11-21T03:46:04.817Z,17.56
2018-11-21T03:47:05.025Z,17.55
2018-11-21T03:48:04.900Z,17.54
2018-11-21T03:49:05.134Z,17.54
2018-11-21T03:50:05.464Z,17.58
2018-11-21T03:51:05.350Z,17.54
2018-11-21T03:52:05.275Z,17.55
2018-11-21T03:53:04.902Z,17.55
2018-11-21T03:54:05.431Z,17.59
2018-11-21T03:55:05.206Z,17.56
2018-11-21T03:56:04.981Z,17.58
2018-11-21T03:57:05.276Z,17.59
2018-11-21T03:58:04.845Z,17.54
2018-11-21T03:59:04.904Z,17.55
2018-11-21T04:00:05.103Z,17.54
2018-11-21T04:01:05.047Z,17.55
2018-11-21T04:02:04.990Z,17.56
2018-11-21T04:03:05.002Z,17.55
2018-11-21T04:04:05.004Z,17.54
2018-11-21T04:05:04.986Z,17.55
2018-11-21T04:06:05.243Z,17.56
2018-11-21T04:07:05.005Z,17.56
2018-11-21T04:08:04.789Z,17.53
2018-11-21T04:09:04.853Z,17.55
2018-11-21T04:10:05.005Z,17.51
2018-11-21T04:11:05.135Z,17.53
2018-11-21T04:12:05.201Z,17.53
2018-11-21T04:13:05.103Z,17.54
2018-11-21T04:14:05.174Z,17.52
2018-11-21T04:15:05.103Z,17.53
2018-11-21T04:16:05.072Z,17.53
2018-11-21T04:17:04.945Z,17.53
2018-11-21T04:18:05.230Z,17.55
2018-11-21T04:19:04.766Z,17.54
2018-11-21T04:20:04.842Z,17.53
2018-11-21T04:21:04.934Z,17.53
2018-11-21T04:22:04.862Z,17.54
2018-11-21T04:23:05.255Z,17.52
2018-11-21T04:24:04.935Z,17.53
2018-11-21T04:25:05.099Z,17.55
2018-11-21T04:26:05.047Z,17.51
2018-11-21T04:27:05.285Z,17.53
2018-11-21T04:28:04.860Z,17.51
2018-11-21T04:29:04.987Z,17.51
2018-11-21T04:30:05.121Z,17.52
2018-11-21T04:31:05.195Z,17.5
2018-11-21T04:32:05.244Z,17.51
2018-11-21T04:33:04.797Z,17.52
2018-11-21T04:34:05.067Z,17.5
2018-11-21T04:35:04.837Z,17.5
2018-11-21T04:36:05.144Z,17.5
2018-11-21T04:37:05.139Z,17.51
2018-11-21T04:38:05.032Z,17.51
2018-11-21T04:39:05.110Z,17.52
2018-11-21T04:40:05.079Z,17.5
2018-11-21T04:41:05.226Z,17.53
2018-11-21T04:42:04.930Z,17.52
2018-11-21T04:43:05.063Z,17.54
2018-11-21T04:44:05.145Z,17.53
2018-11-21T04:45:05.025Z,17.55
2018-11-21T04:46:05.043Z,17.53
2018-11-21T04:47:04.892Z,17.54
2018-11-21T04:48:05.021Z,17.53
2018-11-21T04:49:04.768Z,17.54
2018-11-21T04:50:04.906Z,17.55
2018-11-21T04:51:04.881Z,17.54
2018-11-21T04:52:05.022Z,17.54
2018-11-21T04:53:05.144Z,17.55
2018-11-21T04:54:04.844Z,17.56
2018-11-21T04:55:05.067Z,17.59
2018-11-21T04:56:04.797Z,17.59
2018-11-21T04:57:04.983Z,17.59
2018-11-21T04:58:04.805Z,17.6
2018-11-21T04:59:05.076Z,17.62
2018-11-21T05:00:04.813Z,17.61
2018-11-21T05:01:04.965Z,17.63
2018-11-21T05:02:04.756Z,17.64
2018-11-21T05:03:04.878Z,17.64
2018-11-21T05:04:04.994Z,17.67
2018-11-21T05:05:04.848Z,17.65
2018-11-21T05:06:05.028Z,17.65
2018-11-21T05:07:05.175Z,17.67
2018-11-21T05:08:04.951Z,17.68
2018-11-21T05:09:04.896Z,17.72
2018-11-21T05:10:05.019Z,17.69
2018-11-21T05:11:04.907Z,17.73
2018-11-21T05:12:05.103Z,17.74
2018-11-21T05:13:04.767Z,17.75
2018-11-21T05:14:05.168Z,17.75
2018-11-21T05:15:04.935Z,17.79
2018-11-21T05:16:05.246Z,17.77
2018-11-21T05:17:05.348Z,17.8
2018-11-21T05:18:04.904Z,17.79
2018-11-21T05:19:05.013Z,17.81
2018-11-21T05:20:04.738Z,17.84
2018-11-21T05:21:04.919Z,17.84
2018-11-21T05:22:05.132Z,17.89
2018-11-21T05:23:04.839Z,17.88
2018-11-21T05:24:05.282Z,17.91
2018-11-21T05:25:05.512Z,17.91
2018-11-21T05:26:05.151Z,17.92
2018-11-21T05:27:04.899Z,17.93
2018-11-21T05:28:05.364Z,17.96
2018-11-21T05:29:04.770Z,17.96
2018-11-21T05:30:04.874Z,17.97
2018-11-21T05:31:05.042Z,17.98
2018-11-21T05:32:05.129Z,17.99
2018-11-21T05:33:05.081Z,18.03
2018-11-21T05:34:05.024Z,18.04
2018-11-21T05:35:05.252Z,18.03
2018-11-21T05:36:05.644Z,18.04
2018-11-21T05:37:05.085Z,18.07
2018-11-21T05:38:04.979Z,18.07
2018-11-21T05:39:05.063Z,18.07
2018-11-21T05:40:04.893Z,18.07
2018-11-21T05:41:04.845Z,18.08
2018-11-21T05:42:05.316Z,18.09
2018-11-21T05:43:04.962Z,18.09
2018-11-21T05:44:04.919Z,18.11
2018-11-21T05:45:04.891Z,18.11
2018-11-21T05:46:05.003Z,18.13
2018-11-21T05:47:04.838Z,18.12
2018-11-21T05:48:05.135Z,18.13
2018-11-21T05:49:04.849Z,18.14
2018-11-21T05:50:04.774Z,18.14
2018-11-21T05:51:04.769Z,18.17
2018-11-21T05:52:04.789Z,18.15
2018-11-21T05:53:05.231Z,18.17
2018-11-21T05:54:04.887Z,18.15
2018-11-21T05:55:04.951Z,18.14
2018-11-21T05:56:05.309Z,18.18
2018-11-21T05:57:05.203Z,18.19
2018-11-21T05:58:05.223Z,18.18
2018-11-21T05:59:04.834Z,18.17
2018-11-21T06:00:04.712Z,18.2
2018-11-21T06:01:04.891Z,18.2
2018-11-21T06:02:05.104Z,18.19
2018-11-21T06:03:04.802Z,18.2
2018-11-21T06:04:04.958Z,18.2
2018-11-21T06:05:04.823Z,18.21
2018-11-21T06:06:10.184Z,18.22
2018-11-21T06:07:05.065Z,18.19
2018-11-21T06:08:04.688Z,18.2
2018-11-21T06:09:05.402Z,18.22
2018-11-21T06:10:04.835Z,18.19
2018-11-21T06:11:05.212Z,18.21
2018-11-21T06:12:04.846Z,18.21
2018-11-21T06:13:04.931Z,18.19
2018-11-21T06:14:05.161Z,18.21
2018-11-21T06:15:05.256Z,18.22
2018-11-21T06:16:04.812Z,18.23
2018-11-21T06:17:05.228Z,18.22
2018-11-21T06:18:05.028Z,18.24
2018-11-21T06:19:05.025Z,18.24
2018-11-21T06:20:04.859Z,18.23
2018-11-21T06:21:04.739Z,18.24
2018-11-21T06:22:05.096Z,18.24
2018-11-21T06:23:04.717Z,18.23
2018-11-21T06:24:04.758Z,18.25
2018-11-21T06:25:05.057Z,18.23
2018-11-21T06:26:05.656Z,18.23
2018-11-21T06:27:04.943Z,18.24
2018-11-21T06:28:04.845Z,18.23
2018-11-21T06:29:05.389Z,18.2
2018-11-21T06:30:04.841Z,18.24
2018-11-21T06:31:04.767Z,18.21
2018-11-21T06:32:04.832Z,18.2
2018-11-21T06:33:04.850Z,18.21
2018-11-21T06:34:04.989Z,18.2
2018-11-21T06:35:04.841Z,18.22
2018-11-21T06:36:05.128Z,18.19
2018-11-21T06:37:04.810Z,18.18
2018-11-21T06:38:04.901Z,18.19
2018-11-21T06:39:04.718Z,18.21
2018-11-21T06:40:04.898Z,18.2
2018-11-21T06:41:04.969Z,18.18
2018-11-21T06:42:04.699Z,18.19
2018-11-21T06:43:04.852Z,18.19
2018-11-21T06:44:04.919Z,18.19
2018-11-21T06:45:04.956Z,18.22
2018-11-21T06:46:04.991Z,18.18
2018-11-21T06:47:04.991Z,18.19
2018-11-21T06:48:05.053Z,18.21
2018-11-21T06:49:05.280Z,18.17
2018-11-21T06:50:05.112Z,18.17
2018-11-21T06:51:04.981Z,18.18
2018-11-21T06:52:04.760Z,18.17
2018-11-21T06:53:05.723Z,18.17
2018-11-21T06:54:05.192Z,18.15
2018-11-21T06:55:05.074Z,18.15
2018-11-21T06:56:04.920Z,18.17
2018-11-21T06:57:05.268Z,18.15
2018-11-21T06:58:05.145Z,18.14
2018-11-21T06:59:05.376Z,18.17
2018-11-21T07:00:05.046Z,18.18
2018-11-21T07:01:05.081Z,18.17
2018-11-21T07:02:04.861Z,18.19
2018-11-21T07:03:04.704Z,18.15
2018-11-21T07:04:04.854Z,18.17
2018-11-21T07:05:04.960Z,18.17
2018-11-21T07:06:05.242Z,18.17
2018-11-21T07:07:04.963Z,18.17
2018-11-21T07:08:04.910Z,18.18
2018-11-21T07:09:04.608Z,18.2
2018-11-21T07:10:04.835Z,18.17
2018-11-21T07:11:05.323Z,18.17
2018-11-21T07:12:04.835Z,18.17
2018-11-21T07:13:11.414Z,18.18
2018-11-21T07:14:07.550Z,18.17
2018-11-21T07:15:04.943Z,18.18
2018-11-21T07:16:05.181Z,18.17
2018-11-21T07:17:05.010Z,18.15
2018-11-21T07:18:04.712Z,18.17
2018-11-21T07:19:04.973Z,18.17
2018-11-21T07:20:05.359Z,18.17
2018-11-21T07:21:04.993Z,18.18
2018-11-21T07:22:05.051Z,18.17
2018-11-21T07:23:05.222Z,18.17
2018-11-21T07:24:04.758Z,18.17
2018-11-21T07:25:05.128Z,18.18
2018-11-21T07:26:05.034Z,18.17
2018-11-21T07:27:04.831Z,18.19
2018-11-21T07:28:04.915Z,18.18
2018-11-21T07:29:04.800Z,18.17
2018-11-21T07:30:05.361Z,18.2
2018-11-21T07:31:05.706Z,18.17
2018-11-21T07:32:05.748Z,18.17
2018-11-21T07:33:04.809Z,18.18
2018-11-21T07:34:04.854Z,18.17
2018-11-21T07:35:05.108Z,18.2
2018-11-21T07:36:05.133Z,18.18
2018-11-21T07:37:05.138Z,18.17
2018-11-21T07:38:04.999Z,18.17
2018-11-21T07:39:04.890Z,18.19
2018-11-21T07:40:04.822Z,18.18
2018-11-21T07:41:04.857Z,18.21
2018-11-21T07:42:05.159Z,18.19
2018-11-21T07:43:04.993Z,18.17
2018-11-21T07:44:04.796Z,18.18
2018-11-21T07:45:05.132Z,18.19
2018-11-21T07:46:04.975Z,18.18
2018-11-21T07:47:04.905Z,18.17
2018-11-21T07:48:05.132Z,18.19
2018-11-21T07:49:04.893Z,18.19
2018-11-21T07:50:05.031Z,18.2
2018-11-21T07:51:05.012Z,18.19
2018-11-21T07:52:05.131Z,18.2
2018-11-21T07:53:04.839Z,18.2
2018-11-21T07:54:04.731Z,18.22
2018-11-21T07:55:04.897Z,18.23
2018-11-21T07:56:04.655Z,18.2
2018-11-21T07:57:05.158Z,18.22
2018-11-21T07:58:04.811Z,18.22
2018-11-21T07:59:04.929Z,18.2
2018-11-21T08:00:05.013Z,18.21
2018-11-21T08:01:05.210Z,18.19
2018-11-21T08:02:04.803Z,18.22
2018-11-21T08:03:05.101Z,18.22
2018-11-21T08:04:04.825Z,18.22
2018-11-21T08:05:04.985Z,18.22
2018-11-21T08:06:04.901Z,18.21
2018-11-21T08:07:04.707Z,18.22
2018-11-21T08:08:04.811Z,18.23
2018-11-21T08:09:04.849Z,18.21
2018-11-21T08:10:05.058Z,18.21
2018-11-21T08:11:05.048Z,18.22
2018-11-21T08:12:04.890Z,18.22
2018-11-21T08:13:04.747Z,18.22
2018-11-21T08:14:05.010Z,18.23
2018-11-21T08:15:04.977Z,18.21
2018-11-21T08:16:04.690Z,18.21
2018-11-21T08:17:04.716Z,18.24
2018-11-21T08:18:04.849Z,18.23
2018-11-21T08:19:04.708Z,18.22
2018-11-21T08:20:05.016Z,18.22
2018-11-21T08:21:05.308Z,18.22
2018-11-21T08:22:05.030Z,18.22
2018-11-21T08:23:05.250Z,18.22
2018-11-21T08:24:05.963Z,18.22
2018-11-21T08:25:04.745Z,18.23
2018-11-21T08:26:04.986Z,18.23
2018-11-21T08:27:04.978Z,18.21
2018-11-21T08:28:05.647Z,18.22
2018-11-21T08:29:05.195Z,18.24
2018-11-21T08:30:05.137Z,18.22
2018-11-21T08:31:04.811Z,18.22
2018-11-21T08:32:05.212Z,18.22
2018-11-21T08:33:04.852Z,18.22
2018-11-21T08:34:04.831Z,18.22
2018-11-21T08:35:04.997Z,18.23
2018-11-21T08:36:05.853Z,18.22
2018-11-21T08:37:05.106Z,18.2
2018-11-21T08:38:04.956Z,18.22
2018-11-21T08:39:05.015Z,18.23
2018-11-21T08:40:05.090Z,18.22
2018-11-21T08:41:05.500Z,18.23
2018-11-21T08:42:04.894Z,18.22
2018-11-21T08:43:04.886Z,18.21
2018-11-21T08:44:04.849Z,18.23
2018-11-21T08:45:04.916Z,18.21
2018-11-21T08:46:04.876Z,18.21
2018-11-21T08:47:05.210Z,18.2
2018-11-21T08:48:04.741Z,18.22
2018-11-21T08:49:04.991Z,18.21
2018-11-21T08:50:04.868Z,18.21
2018-11-21T08:51:05.038Z,18.2
2018-11-21T08:52:04.848Z,18.22
2018-11-21T08:53:05.356Z,18.21
2018-11-21T08:54:04.640Z,18.2
2018-11-21T08:55:09.317Z,18.17
2018-11-21T08:56:05.041Z,18.22
2018-11-21T08:57:04.870Z,18.2
2018-11-21T08:58:04.871Z,18.21
2018-11-21T08:59:04.834Z,18.19
2018-11-21T09:00:04.751Z,18.2
2018-11-21T09:01:04.894Z,18.2
2018-11-21T09:02:04.703Z,18.21
2018-11-21T09:03:04.706Z,18.22
2018-11-21T09:04:04.714Z,18.23
2018-11-21T09:05:04.852Z,18.22
2018-11-21T09:06:05.263Z,18.22
2018-11-21T09:07:04.786Z,18.22
2018-11-21T09:08:05.253Z,18.22
2018-11-21T09:09:04.996Z,18.21
2018-11-21T09:10:04.981Z,18.23
2018-11-21T09:11:05.249Z,18.22
2018-11-21T09:12:09.048Z,18.23
2018-11-21T09:13:04.780Z,18.23
2018-11-21T09:14:05.103Z,18.21
2018-11-21T09:15:05.003Z,18.22
2018-11-21T09:16:05.124Z,18.23
2018-11-21T09:17:05.023Z,18.23
2018-11-21T09:18:04.830Z,18.22
2018-11-21T09:19:04.874Z,18.22
2018-11-21T09:20:05.035Z,18.22
2018-11-21T09:21:04.902Z,18.22
2018-11-21T09:22:04.837Z,18.22
2018-11-21T09:23:05.158Z,18.23
2018-11-21T09:24:04.920Z,18.22
2018-11-21T09:25:05.602Z,18.22
2018-11-21T09:26:04.972Z,18.22
2018-11-21T09:27:04.719Z,18.23
2018-11-21T09:28:04.916Z,18.23
2018-11-21T09:29:04.699Z,18.21
2018-11-21T09:30:04.809Z,18.22
2018-11-21T09:31:05.009Z,18.21
2018-11-21T09:32:04.745Z,18.22
2018-11-21T09:33:04.922Z,18.22
2018-11-21T09:34:04.767Z,18.23
2018-11-21T09:35:04.902Z,18.22
2018-11-21T09:36:04.962Z,18.22
2018-11-21T09:37:04.831Z,18.21
2018-11-21T09:38:04.739Z,18.23
2018-11-21T09:39:04.749Z,18.22
2018-11-21T09:40:04.986Z,18.22
2018-11-21T09:41:05.015Z,18.21
2018-11-21T09:42:04.914Z,18.2
2018-11-21T09:43:04.872Z,18.2
2018-11-21T09:44:04.848Z,18.19
2018-11-21T09:45:04.730Z,18.17
2018-11-21T09:46:04.856Z,18.2
2018-11-21T09:47:04.788Z,18.22
2018-11-21T09:48:04.844Z,18.2
2018-11-21T09:49:04.742Z,18.21
2018-11-21T09:50:04.745Z,18.2
2018-11-21T09:51:04.668Z,18.2
2018-11-21T09:52:04.808Z,18.18
2018-11-21T09:53:04.817Z,18.22
2018-11-21T09:54:04.729Z,18.22
2018-11-21T09:55:04.884Z,18.2
2018-11-21T09:56:04.778Z,18.19
2018-11-21T09:57:04.842Z,18.22
2018-11-21T09:58:04.931Z,18.19
2018-11-21T09:59:04.904Z,18.21
2018-11-21T10:00:04.797Z,18.21
2018-11-21T10:01:04.825Z,18.21
2018-11-21T10:02:04.965Z,18.18
2018-11-21T10:03:04.786Z,18.22
2018-11-21T10:04:05.756Z,18.2
2018-11-21T10:05:04.709Z,18.22
2018-11-21T10:06:04.787Z,18.2
2018-11-21T10:07:04.910Z,18.18
2018-11-21T10:08:04.973Z,18.21
2018-11-21T10:09:05.372Z,18.2
2018-11-21T10:10:05.105Z,18.19
2018-11-21T10:11:05.302Z,18.19
2018-11-21T10:12:05.005Z,18.2
2018-11-21T10:13:05.046Z,18.2
2018-11-21T10:14:04.957Z,18.21
2018-11-21T10:15:04.961Z,18.2
2018-11-21T10:16:04.664Z,18.21
2018-11-21T10:17:04.804Z,18.18
2018-11-21T10:18:05.136Z,18.2
2018-11-21T10:19:04.750Z,18.21
2018-11-21T10:20:04.928Z,18.21
2018-11-21T10:21:04.957Z,18.2
2018-11-21T10:22:04.965Z,18.22
2018-11-21T10:23:04.878Z,18.23
2018-11-21T10:24:04.896Z,18.23
2018-11-21T10:25:04.679Z,18.21
2018-11-21T10:26:04.742Z,18.19
2018-11-21T10:27:04.891Z,18.22
2018-11-21T10:28:04.965Z,18.22
2018-11-21T10:29:05.736Z,18.21
2018-11-21T10:30:04.721Z,18.23
2018-11-21T10:31:04.943Z,18.2
2018-11-21T10:32:04.748Z,18.21
2018-11-21T10:33:04.943Z,18.2
2018-11-21T10:34:04.735Z,18.21
2018-11-21T10:35:04.999Z,18.22
2018-11-21T10:36:04.861Z,18.21
2018-11-21T10:37:05.352Z,18.22
2018-11-21T10:38:04.643Z,18.23
2018-11-21T10:39:04.770Z,18.21
2018-11-21T10:40:04.663Z,18.21
2018-11-21T10:41:04.744Z,18.22
2018-11-21T10:42:04.900Z,18.22
2018-11-21T10:43:06.006Z,18.2
2018-11-21T10:44:04.835Z,18.2
2018-11-21T10:45:05.129Z,18.22
2018-11-21T10:46:04.868Z,18.2
2018-11-21T10:47:04.884Z,18.22
2018-11-21T10:48:04.741Z,18.22
2018-11-21T10:49:04.955Z,18.21
2018-11-21T10:50:05.177Z,18.21
2018-11-21T10:51:04.980Z,18.22
2018-11-21T10:52:04.984Z,18.21
2018-11-21T10:53:04.779Z,18.25
2018-11-21T10:54:04.970Z,18.22
2018-11-21T10:55:04.811Z,18.22
2018-11-21T10:56:04.876Z,18.22
2018-11-21T10:57:04.666Z,18.22
2018-11-21T10:58:05.227Z,18.23
2018-11-21T10:59:04.990Z,18.23
2018-11-21T11:00:04.754Z,18.23
2018-11-21T11:01:04.800Z,18.22
2018-11-21T11:02:05.047Z,18.23
2018-11-21T11:03:04.671Z,18.22
2018-11-21T11:04:04.839Z,18.21
2018-11-21T11:05:04.757Z,18.23
2018-11-21T11:06:04.725Z,18.21
2018-11-21T11:07:04.890Z,18.24
2018-11-21T11:08:04.772Z,18.22
2018-11-21T11:09:04.751Z,18.22
2018-11-21T11:10:04.850Z,18.22
2018-11-21T11:11:04.899Z,18.22
2018-11-21T11:12:04.674Z,18.24
2018-11-21T11:13:04.898Z,18.22
2018-11-21T11:14:04.944Z,18.25
2018-11-21T11:15:04.791Z,18.22
2018-11-21T11:16:04.657Z,18.22
2018-11-21T11:17:04.581Z,18.22
2018-11-21T11:18:04.604Z,18.22
2018-11-21T11:19:04.769Z,18.22
2018-11-21T11:20:08.917Z,18.2
2018-11-21T11:21:04.616Z,18.2
2018-11-21T11:22:04.930Z,18.23
2018-11-21T11:23:04.687Z,18.22
2018-11-21T11:24:04.757Z,18.26
2018-11-21T11:25:04.952Z,18.21
2018-11-21T11:26:04.684Z,18.23
2018-11-21T11:27:04.751Z,18.23
2018-11-21T11:28:04.695Z,18.22
2018-11-21T11:29:04.836Z,18.22
2018-11-21T11:30:04.693Z,18.24
2018-11-21T11:31:04.782Z,18.22
2018-11-21T11:32:05.080Z,18.23
2018-11-21T11:33:04.959Z,18.23
2018-11-21T11:34:04.611Z,18.23
2018-11-21T11:35:04.915Z,18.22
2018-11-21T11:36:04.544Z,18.21
2018-11-21T11:37:04.704Z,18.22
2018-11-21T11:38:04.957Z,18.23
2018-11-21T11:39:04.758Z,18.22
2018-11-21T11:40:04.909Z,18.22
2018-11-21T11:41:04.660Z,18.21
2018-11-21T11:42:04.791Z,18.22
2018-11-21T11:43:04.599Z,18.24
2018-11-21T11:44:04.730Z,18.22
2018-11-21T11:45:04.946Z,18.22
2018-11-21T11:46:04.767Z,18.23
2018-11-21T11:47:04.838Z,18.22
2018-11-21T11:48:04.867Z,18.21
2018-11-21T11:49:04.995Z,18.2
2018-11-21T11:50:04.675Z,18.22
2018-11-21T11:51:04.787Z,18.24
2018-11-21T11:52:04.659Z,18.22
2018-11-21T11:53:04.693Z,18.2
2018-11-21T11:54:05.206Z,18.23
2018-11-21T11:55:04.784Z,18.24
2018-11-21T11:56:04.893Z,18.22
2018-11-21T11:57:04.939Z,18.23
2018-11-21T11:58:04.804Z,18.21
2018-11-21T11:59:04.684Z,18.22
2018-11-21T12:00:04.719Z,18.22
2018-11-21T12:01:04.846Z,18.2
2018-11-21T12:02:04.709Z,18.22
2018-11-21T12:03:05.289Z,18.21
2018-11-21T12:04:04.776Z,18.22
2018-11-21T12:05:04.849Z,18.21
2018-11-21T12:06:04.979Z,18.22
2018-11-21T12:07:04.676Z,18.22
2018-11-21T12:08:04.702Z,18.2
2018-11-21T12:09:05.227Z,18.22
2018-11-21T12:10:05.035Z,18.21
2018-11-21T12:11:04.731Z,18.22
2018-11-21T12:12:05.215Z,18.22
2018-11-21T12:13:04.753Z,18.2
2018-11-21T12:14:04.854Z,18.22
2018-11-21T12:15:04.628Z,18.22
2018-11-21T12:16:05.015Z,18.21
2018-11-21T12:17:05.053Z,18.21
2018-11-21T12:18:04.991Z,18.22
2018-11-21T12:19:04.675Z,18.2
2018-11-21T12:20:04.741Z,18.22
2018-11-21T12:21:04.711Z,18.2
2018-11-21T12:22:04.756Z,18.2
2018-11-21T12:23:05.004Z,18.24
2018-11-21T12:24:05.329Z,18.22
2018-11-21T12:25:04.723Z,18.21
2018-11-21T12:26:10.470Z,18.22
2018-11-21T12:27:05.308Z,18.22
2018-11-21T12:28:05.015Z,18.19
2018-11-21T12:29:04.752Z,18.22
2018-11-21T12:30:05.261Z,18.22
2018-11-21T12:31:04.902Z,18.22
2018-11-21T12:32:04.848Z,18.22
2018-11-21T12:33:04.737Z,18.24
2018-11-21T12:34:04.730Z,18.22
2018-11-21T12:35:04.622Z,18.24
2018-11-21T12:36:04.633Z,18.24
2018-11-21T12:37:04.547Z,18.21
2018-11-21T12:38:04.653Z,18.22
2018-11-21T12:39:04.772Z,18.23
2018-11-21T12:40:04.915Z,18.24
2018-11-21T12:41:05.044Z,18.23
2018-11-21T12:42:04.951Z,18.23
2018-11-21T12:43:05.168Z,18.23
2018-11-21T12:44:04.680Z,18.21
2018-11-21T12:45:04.797Z,18.21
2018-11-21T12:46:04.762Z,18.22
2018-11-21T12:47:04.945Z,18.22
2018-11-21T12:48:05.090Z,18.22
2018-11-21T12:49:04.723Z,18.2
2018-11-21T12:50:04.731Z,18.21
2018-11-21T12:51:04.596Z,18.2
2018-11-21T12:52:04.744Z,18.21
2018-11-21T12:53:04.751Z,18.22
2018-11-21T12:54:04.711Z,18.22
2018-11-21T12:55:04.784Z,18.21